Time;durP1;ratioP1;P1;durP2;ratioP2;P2;SDS_P1;SDS_P2;PMS_P1;PMS_P2;Temp;Humidity;BMP_temperature;BMP_pressure;BME280_temperature;BME280_humidity;BME280_pressure;Samples;Min_cycle;Max_cycle;Signal;HPM_P1;HPM_P2
2022/04/16 00:00:27;;;;;;;4.07;3.72;;;;;;;11.53;51.95;63189.53;5040797;28;20248;-79
2022/04/16 00:02:55;;;;;;;2.65;2.47;;;;;;;11.46;51.09;63182.28;5045208;28;20289;-77
2022/04/16 00:05:22;;;;;;;4.07;3.10;;;;;;;11.38;50.02;63174.00;5043788;28;20240;-79
2022/04/16 00:08:06;;;;;;;2.88;2.40;;;;;;;11.38;50.44;63171.44;5037277;28;20467;-77
2022/04/16 00:10:33;;;;;;;11.43;2.70;;;;;;;11.41;50.42;63177.09;5024550;28;20265;-77
2022/04/16 00:13:01;;;;;;;2.70;2.38;;;;;;;11.39;51.27;63170.44;5032399;28;20445;-79
2022/04/16 00:15:29;;;;;;;2.60;2.45;;;;;;;11.36;52.06;63169.88;5027333;28;20210;-77
2022/04/16 00:17:57;;;;;;;5.55;2.72;;;;;;;11.35;52.25;63168.34;5026251;28;20230;-78
2022/04/16 00:20:25;;;;;;;8.82;2.50;;;;;;;11.44;51.81;63178.16;5024341;28;20563;-78
2022/04/16 00:22:52;;;;;;;5.88;2.75;;;;;;;11.54;51.12;63190.56;5024570;28;20218;-78
2022/04/16 00:25:19;;;;;;;3.10;2.78;;;;;;;11.63;50.81;63197.34;5039022;28;20233;-78
2022/04/16 00:27:46;;;;;;;3.03;2.80;;;;;;;11.71;50.07;63207.69;5040807;28;20281;-77
2022/04/16 00:30:15;;;;;;;2.88;2.67;;;;;;;11.70;49.79;63204.59;5045395;28;20582;-79
2022/04/16 00:32:44;;;;;;;2.70;2.53;;;;;;;11.71;49.70;63205.13;5045402;28;20220;-76
2022/04/16 00:35:10;;;;;;;4.28;2.45;;;;;;;11.70;49.98;63204.59;5039941;28;20206;-79
2022/04/16 00:37:37;;;;;;;3.28;2.97;;;;;;;11.70;49.75;63204.59;5042696;28;20385;-78
2022/04/16 00:40:06;;;;;;;2.42;2.33;;;;;;;11.70;49.47;63201.53;5041114;28;20248;-78
2022/04/16 00:42:33;;;;;;;3.22;2.72;;;;;;;11.71;50.55;63207.69;5043731;28;20285;-78
2022/04/16 00:45:00;;;;;;;3.45;2.45;;;;;;;11.66;50.27;63203.03;5034718;28;20500;-78
2022/04/16 00:47:26;;;;;;;2.95;2.10;;;;;;;11.62;51.08;63199.38;5044898;28;20226;-78
2022/04/16 00:49:55;;;;;;;3.15;2.47;;;;;;;11.47;51.26;63181.28;5047111;28;20273;-78
2022/04/16 00:52:22;;;;;;;3.45;3.10;;;;;;;11.54;51.93;63190.56;5046668;28;20218;-79
2022/04/16 00:54:51;;;;;;;2.80;2.60;;;;;;;11.41;52.27;63172.50;5041626;28;20216;-78
2022/04/16 00:57:19;;;;;;;3.10;2.83;;;;;;;11.40;51.44;63170.97;5049698;28;20292;-78
2022/04/16 00:59:46;;;;;;;5.78;2.65;;;;;;;11.42;51.05;63176.09;5052994;28;20236;-78
2022/04/16 01:02:13;;;;;;;4.13;2.97;;;;;;;11.44;51.36;63180.22;5048208;28;20225;-76
2022/04/16 01:04:40;;;;;;;7.30;3.00;;;;;;;11.32;51.49;63168.28;5046556;28;20486;-79
2022/04/16 01:07:08;;;;;;;3.08;2.83;;;;;;;11.31;51.64;63164.72;5046136;28;20209;-78
2022/04/16 01:09:35;;;;;;;3.45;3.03;;;;;;;11.27;51.99;63163.09;5048587;28;20281;-78
2022/04/16 01:12:03;;;;;;;4.78;3.17;;;;;;;11.29;52.42;63162.13;5040506;28;20241;-78
2022/04/16 01:14:30;;;;;;;4.03;2.85;;;;;;;11.33;52.10;63166.25;5048244;28;20422;-77
2022/04/16 01:16:57;;;;;;;3.10;2.85;;;;;;;11.33;52.33;63168.81;5048050;28;20244;-77
2022/04/16 01:19:24;;;;;;;6.45;3.05;;;;;;;11.28;52.29;63159.06;5047737;28;20239;-78
2022/04/16 01:21:52;;;;;;;2.53;2.30;;;;;;;11.15;52.18;63148.13;5040236;28;20225;-77
2022/04/16 01:24:20;;;;;;;4.15;2.83;;;;;;;11.13;52.20;63153.69;5048817;28;20487;-77
2022/04/16 01:26:49;;;;;;;3.97;3.38;;;;;;;11.18;51.94;63156.34;5048880;28;20209;-78
2022/04/16 01:29:16;;;;;;;5.45;4.07;;;;;;;11.23;51.34;63150.81;5043260;28;20209;-78
2022/04/16 01:31:43;;;;;;;4.68;3.90;;;;;;;11.13;51.33;63145.56;5041813;28;20202;-79
2022/04/16 01:34:10;;;;;;;3.50;3.00;;;;;;;11.05;50.72;63137.25;5046130;28;20235;-79
2022/04/16 01:36:37;;;;;;;3.25;3.05;;;;;;;11.01;50.75;63133.63;5047161;28;20198;-78
2022/04/16 01:39:03;;;;;;;5.20;3.40;;;;;;;10.96;51.26;63128.47;5040683;28;20222;-78
2022/04/16 01:41:32;;;;;;;5.53;3.20;;;;;;;10.90;51.39;63124.28;5046873;28;20557;-78
2022/04/16 01:43:59;;;;;;;3.65;3.33;;;;;;;10.94;51.55;63126.38;5042402;28;20225;-78
2022/04/16 01:46:27;;;;;;;5.13;3.15;;;;;;;10.95;51.59;63129.97;5034632;28;20499;-77
2022/04/16 01:48:54;;;;;;;5.72;3.17;;;;;;;10.92;52.19;63129.44;5041314;28;20281;-77
2022/04/16 01:51:22;;;;;;;3.47;3.17;;;;;;;10.84;52.43;63112.97;5044100;28;20212;-77
2022/04/16 01:53:49;;;;;;;4.20;3.85;;;;;;;10.82;52.67;63108.88;5045378;28;20218;-78
2022/04/16 01:56:16;;;;;;;4.30;3.67;;;;;;;10.77;52.74;63108.28;5044710;28;20268;-78
2022/04/16 01:58:45;;;;;;;3.80;3.22;;;;;;;10.66;52.81;63094.34;5044807;28;20225;-78
2022/04/16 02:01:11;;;;;;;5.43;3.63;;;;;;;10.61;52.96;63092.25;5045888;28;20257;-78
2022/04/16 02:03:38;;;;;;;3.38;3.15;;;;;;;10.57;52.39;63087.56;5045310;28;20222;-78
2022/04/16 02:06:06;;;;;;;3.90;2.88;;;;;;;10.46;51.72;63079.25;5050144;28;20210;-78
2022/04/16 02:08:33;;;;;;;2.58;2.38;;;;;;;10.39;51.81;63069.44;5026328;28;20527;-79
2022/04/16 02:11:00;;;;;;;3.08;2.58;;;;;;;10.31;51.92;63061.72;5032130;28;20210;-78
2022/04/16 02:13:26;;;;;;;4.13;3.33;;;;;;;10.28;52.21;63055.53;5044711;28;20264;-78
2022/04/16 02:15:57;;;;;;;3.70;3.30;;;;;;;10.15;52.40;63049.72;5037473;28;20215;-78
2022/04/16 02:18:24;;;;;;;6.95;2.78;;;;;;;10.10;51.21;63042.00;5026725;28;20227;-77
2022/04/16 02:20:51;;;;;;;3.35;2.47;;;;;;;10.12;50.17;63041.53;5031040;28;20228;-77
2022/04/16 02:23:18;;;;;;;2.92;2.22;;;;;;;10.07;50.55;63033.78;5045865;28;20218;-78
2022/04/16 02:25:45;;;;;;;4.28;2.42;;;;;;;10.01;51.24;63030.63;5046203;28;20202;-78
2022/04/16 02:28:12;;;;;;;4.45;2.50;;;;;;;10.01;51.91;63025.56;5047335;28;20229;-79
2022/04/16 02:30:40;;;;;;;3.70;1.70;;;;;;;10.01;50.33;63025.56;5038503;28;20449;-80
2022/04/16 02:33:10;;;;;;;2.53;2.33;;;;;;;9.98;50.63;63025.00;5034149;28;20224;-79
2022/04/16 02:35:37;;;;;;;2.78;2.25;;;;;;;10.01;51.37;63030.13;5052290;28;20206;-79
2022/04/16 02:38:04;;;;;;;3.83;2.20;;;;;;;10.06;50.70;63030.22;5050782;28;20519;-78
2022/04/16 02:40:31;;;;;;;2.95;2.75;;;;;;;10.07;51.52;63038.88;5050806;28;20292;-79
2022/04/16 02:42:57;;;;;;;3.03;2.72;;;;;;;9.85;52.25;63011.56;5047913;28;20218;-80
2022/04/16 02:48:10;;;;;;;4.72;3.60;;;;;;;9.70;53.53;62998.06;5046824;28;20336;-79
2022/04/16 02:50:37;;;;;;;3.25;2.90;;;;;;;9.73;53.77;63001.69;5046685;28;20202;-79
2022/04/16 02:53:03;;;;;;;9.40;5.95;;;;;;;9.67;53.59;62994.94;5045497;28;20269;-79
2022/04/16 02:55:31;;;;;;;6.43;4.95;;;;;;;9.66;53.37;62999.53;5050077;28;20305;-79
2022/04/16 02:57:59;;;;;;;3.47;3.17;;;;;;;9.53;54.37;62981.00;5050232;28;20226;-79
2022/04/16 03:00:26;;;;;;;4.32;2.90;;;;;;;9.75;53.74;63003.75;5049300;28;20238;-79
2022/04/16 03:02:54;;;;;;;3.58;3.00;;;;;;;9.74;54.16;63002.72;5039139;28;20229;-80
2022/04/16 03:05:22;;;;;;;5.95;2.90;;;;;;;9.83;54.81;63011.50;5036358;28;20232;-78
2022/04/16 03:07:50;;;;;;;4.93;2.75;;;;;;;9.84;55.19;63010.50;5051230;28;20634;-79
2022/04/16 03:10:16;;;;;;;2.65;2.45;;;;;;;9.85;55.32;63016.66;5051480;28;20582;-79
2022/04/16 03:12:48;;;;;;;2.80;2.60;;;;;;;9.78;55.66;63009.41;5053655;28;20234;-79
2022/04/16 03:18:01;;;;;;;3.78;2.90;;;;;;;9.73;55.96;63001.16;5048775;28;20217;-80
2022/04/16 03:20:30;;;;;;;5.82;4.15;;;;;;;9.82;55.28;63013.03;5043278;28;20230;-80
2022/04/16 03:22:57;;;;;;;4.60;3.53;;;;;;;9.86;55.43;63014.59;5049274;28;20241;-80
2022/04/16 03:25:23;;;;;;;3.20;3.00;;;;;;;9.84;55.87;63013.06;5049642;28;20228;-79
2022/04/16 03:27:50;;;;;;;3.20;2.83;;;;;;;9.87;56.04;63015.66;5046333;28;20249;-80
2022/04/16 03:30:17;;;;;;;2.28;2.17;;;;;;;9.87;56.47;63013.63;5048881;28;20201;-79
2022/04/16 03:32:47;;;;;;;12.45;7.88;;;;;;;9.89;56.73;63017.69;5049970;28;20222;-79
2022/04/16 03:35:14;;;;;;;12.73;6.00;;;;;;;9.86;57.03;63012.59;5048041;28;20560;-80
2022/04/16 03:37:43;;;;;;;6.25;3.83;;;;;;;9.90;57.08;63013.66;5048977;28;20253;-78
2022/04/16 03:40:12;;;;;;;3.78;3.35;;;;;;;9.96;56.47;63022.94;5053040;28;20604;-79
2022/04/16 03:42:45;;;;;;;4.80;2.75;;;;;;;10.01;55.49;63032.69;5049989;28;20217;-79
2022/04/16 03:45:18;;;;;;;2.85;2.58;;;;;;;9.99;54.92;63025.53;5045268;28;20205;-79
2022/04/16 03:47:45;;;;;;;4.93;2.72;;;;;;;10.00;55.38;63034.19;5037904;28;20280;-78
2022/04/16 03:50:13;;;;;;;5.20;3.17;;;;;;;10.03;55.98;63029.66;5046665;28;20197;-79
2022/04/16 03:52:41;;;;;;;3.55;2.90;;;;;;;10.10;56.17;63042.53;5048552;28;20225;-79
2022/04/16 04:00:44;;;;;;;2.72;2.53;;;;;;;10.09;56.82;63035.88;5048992;28;20220;-78
2022/04/16 04:03:11;;;;;;;2.97;2.78;;;;;;;10.06;57.01;63038.34;5049424;28;20222;-81
2022/04/16 04:05:38;;;;;;;3.63;3.30;;;;;;;10.03;57.12;63030.16;5042733;28;20221;-80
2022/04/16 04:08:06;;;;;;;5.38;2.88;;;;;;;10.17;56.49;63051.78;5047392;28;20218;-79
2022/04/16 04:10:34;;;;;;;2.92;2.72;;;;;;;10.27;56.53;63054.50;5050537;28;20443;-79
2022/04/16 04:13:01;;;;;;;4.00;3.67;;;;;;;10.42;55.86;63075.13;5048243;28;20245;-79
2022/04/16 04:15:29;;;;;;;3.40;3.10;;;;;;;10.48;55.82;63078.78;5047741;28;20208;-80
2022/04/16 04:17:56;;;;;;;2.90;2.80;;;;;;;10.59;55.81;63090.16;5050585;28;20275;-81
2022/04/16 04:20:24;;;;;;;4.00;3.60;;;;;;;10.65;55.77;63091.28;5048091;28;20222;-81
2022/04/16 04:22:50;;;;;;;6.57;3.30;;;;;;;10.76;55.83;63109.78;5042465;28;20233;-81
2022/04/16 04:25:17;;;;;;;4.57;3.05;;;;;;;10.88;55.63;63122.22;5047816;28;20255;-80
2022/04/16 04:27:46;;;;;;;4.18;3.67;;;;;;;11.02;55.75;63131.63;5043955;28;20245;-79
2022/04/16 04:30:13;;;;;;;5.40;4.00;;;;;;;11.10;55.75;63142.97;5041728;28;20244;-79
2022/04/16 04:32:40;;;;;;;3.67;3.38;;;;;;;11.16;55.09;63146.09;5038077;28;20226;-79
2022/04/16 04:35:09;;;;;;;3.70;3.20;;;;;;;11.25;54.99;63158.50;5044682;28;20252;-78
2022/04/16 04:37:37;;;;;;;3.90;3.55;;;;;;;11.34;54.99;63160.16;5044053;28;20217;-79
2022/04/16 04:40:05;;;;;;;6.80;3.92;;;;;;;11.41;54.65;63175.06;5041707;28;20256;-80
2022/04/16 04:42:34;;;;;;;6.20;3.55;;;;;;;11.60;54.05;63192.19;5043038;28;20233;-79
2022/04/16 04:45:10;;;;;;;3.97;3.63;;;;;;;11.72;53.77;63201.56;5045069;28;20201;-79
2022/04/16 04:47:37;;;;;;;5.65;4.00;;;;;;;11.74;54.44;63211.31;5044578;28;20292;-79
2022/04/16 04:50:05;;;;;;;6.15;4.30;;;;;;;11.70;55.53;63207.16;5037253;28;20245;-79
2022/04/16 04:52:32;;;;;;;12.60;4.03;;;;;;;11.69;55.77;63200.50;5042623;28;20260;-78
2022/04/16 04:55:00;;;;;;;9.48;4.65;;;;;;;11.68;56.14;63202.03;5043710;28;20260;-78
2022/04/16 04:57:27;;;;;;;11.57;5.75;;;;;;;11.62;56.01;63196.81;5044881;28;20256;-78
2022/04/16 04:59:54;;;;;;;14.55;5.22;;;;;;;11.30;56.75;63168.25;5038772;28;20426;-79
2022/04/16 05:02:23;;;;;;;12.40;6.10;;;;;;;11.27;57.35;63160.56;5045625;28;20218;-77
2022/04/16 05:04:50;;;;;;;11.73;5.22;;;;;;;11.44;56.94;63180.72;5040559;28;20198;-78
2022/04/16 05:07:16;;;;;;;12.48;5.78;;;;;;;11.58;56.45;63192.66;5040396;28;20244;-79
2022/04/16 05:09:43;;;;;;;8.68;5.38;;;;;;;11.63;55.81;63197.84;5043395;28;20198;-80
2022/04/16 05:12:10;;;;;;;7.65;5.68;;;;;;;11.30;56.41;63161.13;5045112;28;20240;-79
2022/04/16 05:14:37;;;;;;;16.90;6.40;;;;;;;11.27;56.87;63162.59;5042136;28;20217;-79
2022/04/16 05:17:04;;;;;;;9.50;5.97;;;;;;;11.44;56.72;63182.75;5041772;28;20248;-79
2022/04/16 05:19:32;;;;;;;9.30;5.93;;;;;;;11.38;57.13;63174.50;5044124;28;20274;-79
2022/04/16 05:21:59;;;;;;;19.45;12.10;;;;;;;11.47;56.78;63186.38;5045617;28;20233;-79
2022/04/16 05:24:26;;;;;;;7.47;6.20;;;;;;;11.54;56.60;63185.47;5043348;28;20380;-81
2022/04/16 05:26:53;;;;;;;12.93;6.50;;;;;;;11.69;56.24;63205.59;5044958;28;20241;-79
2022/04/16 05:29:20;;;;;;;16.05;6.03;;;;;;;11.73;56.12;63207.19;5043295;28;20198;-78
2022/04/16 05:31:47;;;;;;;6.95;6.25;;;;;;;11.73;56.63;63210.28;5042710;28;20252;-79
2022/04/16 05:34:19;;;;;;;15.05;5.22;;;;;;;11.91;56.32;63228.91;5039795;28;20248;-79
2022/04/16 05:36:49;;;;;;;9.75;6.30;;;;;;;11.89;56.51;63223.78;5044951;28;20248;-80
2022/04/16 05:39:16;;;;;;;8.65;6.63;;;;;;;12.06;57.09;63244.47;5043283;28;20416;-79
2022/04/16 05:41:43;;;;;;;7.20;5.97;;;;;;;12.26;56.63;63269.78;5044212;28;20234;-80
2022/04/16 05:44:10;;;;;;;9.05;5.22;;;;;;;12.50;55.09;63284.44;5046161;28;20214;-79
2022/04/16 05:46:38;;;;;;;9.90;5.53;;;;;;;12.55;54.41;63290.16;5045766;28;20210;-79
2022/04/16 05:49:04;;;;;;;13.07;5.95;;;;;;;12.62;54.08;63302.53;5050858;28;20533;-80
2022/04/16 05:51:32;;;;;;;9.93;5.95;;;;;;;12.67;53.88;63304.63;5044384;28;20202;-77
2022/04/16 05:54:03;;;;;;;8.45;5.95;;;;;;;12.71;54.41;63311.84;5046101;28;20214;-78
2022/04/16 05:56:30;;;;;;;6.55;5.55;;;;;;;12.71;55.83;63304.19;5041720;28;20217;-78
2022/04/16 05:58:57;;;;;;;10.70;6.53;;;;;;;12.86;55.59;63328.94;5043926;28;20213;-77
2022/04/16 06:01:24;;;;;;;14.30;7.60;;;;;;;13.02;54.24;63340.94;5036011;28;20429;-78
2022/04/16 06:03:51;;;;;;;9.98;5.68;;;;;;;13.25;51.14;63367.38;5041610;28;20229;-77
2022/04/16 06:06:18;;;;;;;5.88;5.10;;;;;;;13.15;50.69;63356.97;5044129;28;20252;-77
2022/04/16 06:08:45;;;;;;;6.85;4.85;;;;;;;13.44;49.01;63387.06;5044754;28;20218;-78
2022/04/16 06:11:17;;;;;;;11.00;5.07;;;;;;;13.56;48.62;63396.97;5043119;28;20201;-80
2022/04/16 06:13:44;;;;;;;9.55;5.80;;;;;;;13.60;48.48;63401.13;5042412;28;20218;-79
2022/04/16 06:16:11;;;;;;;9.15;5.30;;;;;;;13.33;49.17;63370.03;5041403;28;20776;-78
2022/04/16 06:18:37;;;;;;;6.18;5.03;;;;;;;13.45;49.39;63379.91;5041511;28;20264;-79
2022/04/16 06:21:04;;;;;;;9.52;5.55;;;;;;;13.58;49.20;63401.59;5044756;28;20240;-78
2022/04/16 06:23:31;;;;;;;6.25;5.10;;;;;;;13.68;46.79;63403.78;5042433;28;20240;-79
2022/04/16 06:25:59;;;;;;;8.07;5.15;;;;;;;13.66;47.51;63406.84;5025984;28;20214;-78
2022/04/16 06:28:28;;;;;;;9.75;5.43;;;;;;;13.67;47.37;63407.88;5041591;28;20229;-79
2022/04/16 06:30:54;;;;;;;18.63;6.60;;;;;;;13.71;45.06;63412.53;5043662;28;20265;-78
2022/04/16 06:33:21;;;;;;;8.43;4.97;;;;;;;13.80;44.16;63427.00;5041612;28;20589;-78
2022/04/16 06:35:48;;;;;;;7.85;3.92;;;;;;;13.84;42.55;63428.06;5046299;28;20247;-77
2022/04/16 06:38:15;;;;;;;9.25;4.03;;;;;;;14.05;42.77;63444.25;5045886;28;20229;-78
2022/04/16 06:40:42;;;;;;;8.45;3.80;;;;;;;14.37;41.14;63482.59;5043462;28;20268;-77
2022/04/16 06:43:09;;;;;;;7.80;3.65;;;;;;;14.26;40.22;63471.16;5045935;28;20214;-78
2022/04/16 06:45:38;;;;;;;10.40;3.88;;;;;;;14.40;40.28;63478.03;5041172;28;20573;-76
2022/04/16 06:48:05;;;;;;;4.47;3.50;;;;;;;14.66;40.34;63515.81;5044306;28;20257;-78
2022/04/16 06:50:32;;;;;;;6.95;3.80;;;;;;;14.96;40.00;63544.41;5046953;28;20210;-80
2022/04/16 06:52:59;;;;;;;8.10;4.25;;;;;;;15.22;39.13;63565.75;5044663;28;20235;-79
2022/04/16 06:55:26;;;;;;;8.73;4.10;;;;;;;15.19;40.23;63567.25;5043786;28;20205;-79
2022/04/16 06:57:53;;;;;;;6.13;3.88;;;;;;;15.10;40.10;63555.84;5047897;28;20293;-80
2022/04/16 07:00:20;;;;;;;5.03;3.78;;;;;;;15.33;39.56;63579.78;5049244;28;20202;-80
2022/04/16 07:02:48;;;;;;;8.23;4.75;;;;;;;15.12;39.82;63560.50;5037560;28;20494;-79
2022/04/16 07:05:15;;;;;;;5.57;3.55;;;;;;;14.98;41.06;63545.97;5042930;28;20233;-80
2022/04/16 07:07:41;;;;;;;4.47;3.78;;;;;;;15.21;39.93;63564.72;5045827;28;20218;-80
2022/04/16 07:10:11;;;;;;;15.40;5.95;;;;;;;15.44;40.20;63595.84;5043333;28;20199;-77
2022/04/16 07:12:38;;;;;;;7.15;4.50;;;;;;;15.28;39.44;63574.06;5044265;28;20222;-79
2022/04/16 07:15:06;;;;;;;7.00;4.22;;;;;;;15.10;40.60;63560.47;5048942;28;20525;-78
2022/04/16 07:17:33;;;;;;;10.05;4.25;;;;;;;14.85;41.46;63535.56;5049061;28;20673;-80
2022/04/16 07:20:01;;;;;;;6.22;4.22;;;;;;;14.94;41.77;63537.19;5051990;28;20398;-79
2022/04/16 07:22:28;;;;;;;11.45;4.65;;;;;;;15.13;41.51;63558.47;5046582;28;20237;-78
2022/04/16 07:24:55;;;;;;;6.10;4.32;;;;;;;14.92;41.47;63537.16;5046085;28;20209;-78
2022/04/16 07:27:22;;;;;;;5.85;4.40;;;;;;;15.04;41.34;63552.72;5042460;28;20261;-79
2022/04/16 07:29:51;;;;;;;7.95;5.07;;;;;;;14.95;40.84;63540.81;5047814;28;20202;-79
2022/04/16 07:32:18;;;;;;;6.70;5.03;;;;;;;15.08;41.31;63551.75;5044054;28;20416;-77
2022/04/16 07:34:45;;;;;;;7.47;5.07;;;;;;;15.48;40.13;63594.88;5048003;28;20285;-78
2022/04/16 07:37:13;;;;;;;12.30;5.15;;;;;;;15.72;39.93;63622.38;5048454;28;20525;-79
2022/04/16 07:39:40;;;;;;;6.85;5.30;;;;;;;15.66;40.19;63611.53;5048665;28;20201;-80
2022/04/16 07:42:07;;;;;;;10.38;5.03;;;;;;;15.89;40.67;63637.50;5048857;28;20299;-80
2022/04/16 07:44:35;;;;;;;7.60;4.40;;;;;;;15.81;40.28;63629.69;5051951;28;20205;-79
2022/04/16 07:47:01;;;;;;;5.13;4.13;;;;;;;16.02;40.15;63651.53;5047426;28;20237;-79
2022/04/16 07:49:28;;;;;;;5.68;4.75;;;;;;;16.23;40.45;63672.84;5047539;28;20529;-80
2022/04/16 07:51:55;;;;;;;34.03;6.00;;;;;;;16.21;40.64;63673.31;5045923;28;20304;-79
2022/04/16 07:54:23;;;;;;;7.90;4.68;;;;;;;16.50;39.78;63703.50;5045753;28;20202;-79
2022/04/16 07:56:51;;;;;;;5.47;4.88;;;;;;;15.95;41.06;63646.81;5044639;28;20247;-79
2022/04/16 07:59:18;;;;;;;8.25;5.20;;;;;;;15.69;41.23;63617.22;5043750;28;20224;-79
2022/04/16 08:01:44;;;;;;;10.70;4.82;;;;;;;15.34;42.18;63583.38;5045957;28;20291;-79
2022/04/16 08:04:11;;;;;;;5.93;4.38;;;;;;;15.81;41.41;63629.69;5046485;28;20205;-79
2022/04/16 08:06:38;;;;;;;6.97;4.82;;;;;;;15.79;41.77;63627.09;5045568;28;20239;-78
2022/04/16 08:09:05;;;;;;;6.35;4.72;;;;;;;16.00;40.92;63649.44;5044953;28;20426;-80
2022/04/16 08:11:34;;;;;;;6.20;4.57;;;;;;;16.39;40.33;63686.91;5047861;28;20197;-79
2022/04/16 08:14:02;;;;;;;6.30;4.78;;;;;;;16.56;39.43;63704.63;5043893;28;20379;-79
2022/04/16 08:16:29;;;;;;;5.93;4.85;;;;;;;16.66;39.89;63717.06;5042371;28;20202;-79
2022/04/16 08:18:57;;;;;;;4.70;4.30;;;;;;;16.88;39.27;63743.06;5042111;28;20296;-80
2022/04/16 08:21:25;;;;;;;7.95;4.45;;;;;;;17.00;38.89;63752.44;5044654;28;20546;-78
2022/04/16 08:24:13;;;;;;;6.88;4.90;;;;;;;16.96;39.29;63748.81;5043863;28;20549;-78
2022/04/16 08:26:41;;;;;;;6.43;4.38;;;;;;;16.90;37.99;63744.63;5036890;28;20197;-79
2022/04/16 08:29:09;;;;;;;5.30;4.65;;;;;;;17.01;37.79;63753.50;5042519;28;20513;-79
2022/04/16 08:31:36;;;;;;;5.63;5.00;;;;;;;16.97;38.01;63749.84;5044102;28;20213;-79
2022/04/16 08:34:03;;;;;;;9.35;4.50;;;;;;;16.98;38.36;63750.38;5037552;28;20324;-78
2022/04/16 08:36:30;;;;;;;8.45;4.82;;;;;;;17.00;37.56;63752.44;5044995;28;20216;-80
2022/04/16 08:38:56;;;;;;;4.93;4.47;;;;;;;17.08;38.45;63761.28;5043866;28;20228;-79
2022/04/16 08:41:25;;;;;;;11.35;5.32;;;;;;;17.12;38.38;63764.94;5044290;28;20268;-80
2022/04/16 08:43:55;;;;;;;5.72;4.75;;;;;;;16.68;38.78;63722.25;5043188;28;20451;-78
2022/04/16 08:46:22;;;;;;;7.13;4.30;;;;;;;16.54;39.45;63705.09;5039817;28;20208;-79
2022/04/16 08:48:50;;;;;;;9.85;4.43;;;;;;;16.80;38.90;63734.22;5042949;28;20392;-80
2022/04/16 08:51:18;;;;;;;4.63;4.20;;;;;;;16.74;38.93;63723.34;5036895;28;20202;-79
2022/04/16 08:53:44;;;;;;;7.55;4.72;;;;;;;16.91;38.87;63743.09;5046650;28;20224;-79
2022/04/16 08:56:11;;;;;;;11.57;5.07;;;;;;;17.04;39.60;63759.19;5044846;28;20201;-78
2022/04/16 08:58:39;;;;;;;7.30;4.72;;;;;;;16.83;39.59;63737.31;5042379;28;20221;-79
2022/04/16 09:01:07;;;;;;;7.28;4.82;;;;;;;16.89;39.03;63743.59;5040996;28;20212;-80
2022/04/16 09:03:35;;;;;;;6.03;4.65;;;;;;;16.87;39.34;63736.88;5040936;28;20279;-79
2022/04/16 09:06:02;;;;;;;6.97;4.18;;;;;;;16.71;39.35;63724.84;5042331;28;20197;-78
2022/04/16 09:08:30;;;;;;;6.90;4.18;;;;;;;17.09;38.08;63759.78;5043367;28;20227;-80
2022/04/16 09:11:06;;;;;;;9.70;4.95;;;;;;;17.20;38.77;63775.84;5042766;28;20405;-80
2022/04/16 09:13:33;;;;;;;8.23;4.10;;;;;;;16.89;37.75;63744.09;5040587;28;20221;-78
2022/04/16 09:16:10;;;;;;;7.05;3.85;;;;;;;17.11;36.76;63769.06;5044838;28;20198;-78
2022/04/16 09:18:49;;;;;;;5.05;4.40;;;;;;;17.27;34.58;63778.00;5045985;28;20224;-78
2022/04/16 09:21:17;;;;;;;6.43;4.50;;;;;;;17.49;34.97;63803.47;5046505;28;20193;-77
2022/04/16 09:23:48;;;;;;;5.45;4.20;;;;;;;17.44;35.96;63795.16;5048941;28;20264;-79
2022/04/16 09:26:26;;;;;;;4.88;4.07;;;;;;;17.44;35.26;63797.72;5046261;28;20518;-78
2022/04/16 09:28:53;;;;;;;5.38;3.92;;;;;;;17.63;34.91;63820.63;5045412;28;20221;-79
2022/04/16 09:31:27;;;;;;;6.15;4.60;;;;;;;17.65;36.00;63819.63;5050687;28;20205;-79
2022/04/16 09:33:54;;;;;;;5.15;3.80;;;;;;;18.07;35.48;63866.47;5048531;28;20256;-79
2022/04/16 09:36:24;;;;;;;9.82;4.55;;;;;;;18.50;34.05;63908.16;5049473;28;20232;-79
2022/04/16 09:38:51;;;;;;;7.35;4.60;;;;;;;18.22;35.51;63881.56;5046293;28;20223;-78
2022/04/16 09:41:18;;;;;;;9.30;4.80;;;;;;;18.19;34.84;63876.38;5045869;28;20197;-78
2022/04/16 09:43:45;;;;;;;4.93;4.40;;;;;;;18.14;35.64;63878.91;5045908;28;20233;-78
2022/04/16 09:46:14;;;;;;;5.35;4.28;;;;;;;18.02;35.38;63863.31;5047034;28;20428;-77
2022/04/16 09:48:45;;;;;;;7.05;4.53;;;;;;;17.70;34.89;63822.78;5043537;28;20222;-77
2022/04/16 09:51:12;;;;;;;5.68;3.95;;;;;;;17.89;34.82;63845.13;5048239;28;20431;-77
2022/04/16 09:53:41;;;;;;;10.77;5.28;;;;;;;18.17;34.77;63874.28;5045326;28;20238;-78
2022/04/16 09:56:12;;;;;;;5.30;4.32;;;;;;;18.21;34.88;63878.47;5042455;28;20220;-78
2022/04/16 09:58:44;;;;;;;4.35;3.88;;;;;;;18.50;34.92;63907.66;5045638;28;20221;-80
2022/04/16 10:01:12;;;;;;;5.78;3.75;;;;;;;18.81;35.28;63943.06;5046210;28;20205;-78
2022/04/16 10:03:41;;;;;;;7.30;4.32;;;;;;;18.81;35.14;63939.97;5046559;28;20225;-78
2022/04/16 10:06:10;;;;;;;4.97;4.25;;;;;;;19.28;35.06;63989.47;5040395;28;20205;-78
2022/04/16 10:08:38;;;;;;;8.68;4.63;;;;;;;19.53;35.02;64015.06;5031800;28;20222;-79
2022/04/16 10:11:06;;;;;;;4.70;4.30;;;;;;;20.05;34.32;64068.78;5047700;28;20281;-79
2022/04/16 10:13:39;;;;;;;7.05;4.57;;;;;;;20.54;33.07;64120.44;5048632;28;20285;-78
2022/04/16 10:16:15;;;;;;;5.68;5.03;;;;;;;20.66;32.97;64132.97;5044902;28;20455;-79
2022/04/16 10:18:42;;;;;;;6.55;4.53;;;;;;;20.80;33.18;64149.66;5048932;28;20402;-79
2022/04/16 10:21:20;;;;;;;7.25;5.15;;;;;;;21.12;31.03;64183.06;5050727;28;20194;-80
2022/04/16 10:23:49;;;;;;;7.43;4.30;;;;;;;21.47;31.94;64222.22;5047622;28;20243;-80
2022/04/16 10:26:19;;;;;;;5.15;4.43;;;;;;;21.44;30.98;64218.56;5037764;28;20197;-81
2022/04/16 10:28:54;;;;;;;6.18;4.82;;;;;;;21.63;30.67;64233.75;5047783;28;20224;-81
2022/04/16 10:31:22;;;;;;;7.88;4.85;;;;;;;21.94;31.73;64270.84;5036755;28;20224;-80
2022/04/16 10:34:01;;;;;;;7.57;4.20;;;;;;;22.25;30.56;64294.91;5050331;28;20221;-82
2022/04/16 10:36:32;;;;;;;11.15;4.38;;;;;;;22.37;30.43;64310.59;5052540;28;20201;-79
2022/04/16 10:39:16;;;;;;;9.18;4.35;;;;;;;21.79;29.79;64255.16;5048970;28;20241;-81
2022/04/16 10:41:55;;;;;;;5.90;4.70;;;;;;;21.13;31.97;64189.31;5054094;28;20462;-80
2022/04/16 10:44:28;;;;;;;6.15;4.88;;;;;;;20.87;31.50;64159.03;5049939;28;20209;-81
2022/04/16 10:47:01;;;;;;;4.68;4.20;;;;;;;21.26;31.21;64197.69;5056231;28;20665;-81
2022/04/16 10:49:31;;;;;;;8.77;4.55;;;;;;;21.12;31.99;64185.66;5053017;28;20205;-81
2022/04/16 10:52:00;;;;;;;5.00;4.40;;;;;;;21.33;31.99;64207.59;5048453;28;20217;-80
2022/04/16 10:54:32;;;;;;;8.10;4.63;;;;;;;21.89;30.72;64270.28;5052185;28;20212;-81
2022/04/16 10:57:03;;;;;;;6.13;4.25;;;;;;;22.27;30.32;64302.19;5055234;28;20213;-82
2022/04/16 10:59:38;;;;;;;4.43;3.85;;;;;;;22.56;29.88;64335.13;5053485;28;20198;-82
2022/04/16 11:02:19;;;;;;;4.32;3.97;;;;;;;21.70;30.92;64246.25;5033936;28;20221;-81
2022/04/16 11:04:57;;;;;;;7.57;4.05;;;;;;;21.88;32.45;64264.56;5040934;28;20221;-79
2022/04/16 11:07:28;;;;;;;5.10;4.53;;;;;;;21.70;32.16;64245.75;5050866;28;20217;-81
2022/04/16 11:09:56;;;;;;;5.03;4.50;;;;;;;22.10;31.96;64284.44;5050180;28;20205;-81
2022/04/16 11:12:25;;;;;;;6.18;4.43;;;;;;;22.20;32.15;64294.88;5051320;28;20218;-82
2022/04/16 11:14:53;;;;;;;21.95;16.25;;;;;;;22.38;30.91;64313.72;5052615;28;20209;-81
2022/04/16 11:17:20;;;;;;;20.80;12.38;;;;;;;22.35;31.27;64307.97;5049053;28;20213;-80
2022/04/16 11:19:49;;;;;;;9.07;5.82;;;;;;;22.69;31.66;64338.34;5050243;28;20583;-82
2022/04/16 11:22:16;;;;;;;6.10;4.40;;;;;;;23.13;29.38;64391.59;5046096;28;20232;-80
2022/04/16 11:24:44;;;;;;;6.75;4.57;;;;;;;23.12;29.55;64396.31;5054248;28;20239;-79
2022/04/16 11:35:30;;;;;;;4.80;4.43;;;;;;;22.45;31.66;64321.03;5047220;28;20203;-81
2022/04/16 11:37:57;;;;;;;8.55;4.78;;;;;;;22.65;30.60;64347.66;5044889;28;20221;-80
2022/04/16 11:40:25;;;;;;;8.27;4.93;;;;;;;22.64;30.85;64344.00;5035209;28;20277;-82
2022/04/16 11:42:52;;;;;;;4.57;4.18;;;;;;;22.88;31.96;64363.91;5043878;28;20240;-80
2022/04/16 11:45:19;;;;;;;5.70;3.90;;;;;;;22.86;31.39;64361.31;5042444;28;20241;-80
2022/04/16 11:47:49;;;;;;;6.70;3.75;;;;;;;22.73;32.63;64348.25;5045737;28;20229;-80
2022/04/16 11:50:18;;;;;;;4.07;3.78;;;;;;;22.46;31.64;64319.47;5047885;28;20201;-80
2022/04/16 11:52:51;;;;;;;9.73;4.40;;;;;;;22.64;30.47;64341.41;5047590;28;20221;-81
2022/04/16 11:55:20;;;;;;;4.90;4.50;;;;;;;23.18;31.54;64391.63;5046179;28;20340;-82
2022/04/16 11:57:52;;;;;;;6.45;4.05;;;;;;;23.44;29.73;64424.06;5043248;28;20217;-80